Time;durP1;ratioP1;P1;durP2;ratioP2;P2;SDS_P1;SDS_P2;PMS_P1;PMS_P2;Temp;Humidity;BMP_temperature;BMP_pressure;BME280_temperature;BME280_humidity;BME280_pressure;Samples;Min_cycle;Max_cycle;Signal;HPM_P1;HPM_P2
2023/01/28 00:00:27;;;;;;;1.30;0.60;;;;;;;3.41;100.00;99176.56;4998951;28;20038;-72
2023/01/28 00:02:52;;;;;;;2.58;0.90;;;;;;;4.32;100.00;99335.41;4991435;28;20113;-70
2023/01/28 00:05:18;;;;;;;1.23;0.70;;;;;;;4.35;100.00;99340.41;4991267;28;20513;-72
2023/01/28 00:07:43;;;;;;;2.45;0.80;;;;;;;3.71;100.00;99235.66;4991723;28;20034;-72
2023/01/28 00:10:09;;;;;;;1.88;0.63;;;;;;;3.80;100.00;99268.22;5010539;28;20049;-72
2023/01/28 00:12:35;;;;;;;0.50;0.40;;;;;;;4.23;100.00;99339.72;4995190;28;20038;-72
2023/01/28 00:15:00;;;;;;;0.55;0.40;;;;;;;4.06;100.00;99294.66;4995477;28;20034;-71
2023/01/28 00:17:25;;;;;;;0.50;0.40;;;;;;;3.64;100.00;99244.97;4995221;28;20022;-71
2023/01/28 00:19:51;;;;;;;1.80;0.90;;;;;;;3.70;100.00;99285.09;4995258;28;20061;-72
2023/01/28 00:22:16;;;;;;;0.93;0.50;;;;;;;3.91;100.00;99326.72;4995244;28;20109;-71
2023/01/28 00:24:42;;;;;;;0.90;0.57;;;;;;;4.02;100.00;99348.34;5024188;28;20455;-71
2023/01/28 00:27:08;;;;;;;1.95;0.52;;;;;;;4.10;100.00;99350.81;5014601;28;20095;-72
2023/01/28 00:29:33;;;;;;;1.17;0.60;;;;;;;3.53;100.00;99276.09;5014903;28;20484;-71
2023/01/28 00:31:59;;;;;;;1.98;1.00;;;;;;;3.54;100.00;99276.88;5014710;28;20084;-76
2023/01/28 00:34:24;;;;;;;2.97;0.50;;;;;;;4.07;100.00;99386.03;5003885;28;20093;-71
2023/01/28 00:36:56;;;;;;;1.08;0.60;;;;;;;4.30;100.00;99387.41;4995305;28;20093;-72
2023/01/28 00:39:24;;;;;;;1.90;1.10;;;;;;;4.17;100.00;99387.59;4993475;28;20034;-71
2023/01/28 00:41:51;;;;;;;2.83;1.25;;;;;;;3.70;100.00;99316.91;5009977;28;20387;-71
2023/01/28 00:44:17;;;;;;;2.97;1.33;;;;;;;4.18;100.00;99409.38;4994864;28;20481;-71
2023/01/28 00:46:42;;;;;;;2.25;1.00;;;;;;;3.71;100.00;99290.94;4994810;28;20032;-71
2023/01/28 00:49:08;;;;;;;1.30;0.60;;;;;;;4.15;100.00;99390.13;5009959;28;20031;-72
2023/01/28 00:51:34;;;;;;;1.33;0.65;;;;;;;3.60;100.00;99311.16;4993337;28;20440;-72
2023/01/28 00:53:59;;;;;;;0.40;0.30;;;;;;;4.13;100.00;99403.56;4994679;28;20034;-71
2023/01/28 00:56:25;;;;;;;1.25;0.70;;;;;;;3.96;100.00;99382.81;4993573;28;20058;-72
2023/01/28 00:58:51;;;;;;;2.05;0.40;;;;;;;4.07;100.00;99399.44;5010030;28;20034;-72
2023/01/28 01:01:23;;;;;;;0.60;0.40;;;;;;;3.76;100.00;99362.09;5009632;28;20045;-72
2023/01/28 01:04:25;;;;;;;0.40;0.40;;;;;;;4.07;100.00;99411.16;4994758;28;20117;-72
2023/01/28 01:06:41;;;;;;;0.50;0.40;;;;;;;3.97;100.00;99384.47;4993237;28;20069;-72
2023/01/28 01:09:09;;;;;;;0.77;0.50;;;;;;;4.04;100.00;99414.53;5003986;28;20026;-73
2023/01/28 01:11:35;;;;;;;0.60;0.35;;;;;;;3.23;100.00;99252.94;5012879;28;20038;-71
2023/01/28 01:14:03;;;;;;;0.40;0.38;;;;;;;3.56;100.00;99323.78;5013009;28;20176;-74
2023/01/28 01:16:34;;;;;;;0.77;0.52;;;;;;;3.80;100.00;99338.59;5014355;28;20112;-72
2023/01/28 01:19:00;;;;;;;0.50;0.40;;;;;;;3.89;100.00;99393.78;5012211;28;20200;-73
2023/01/28 01:21:30;;;;;;;0.52;0.40;;;;;;;3.94;100.00;99384.50;5014059;28;20112;-71
2023/01/28 01:23:55;;;;;;;0.57;0.40;;;;;;;3.14;100.00;99257.22;5011815;28;20117;-72
2023/01/28 01:26:21;;;;;;;0.70;0.50;;;;;;;3.52;100.00;99320.47;5013972;28;20030;-70
2023/01/28 01:28:47;;;;;;;1.15;0.52;;;;;;;3.93;100.00;99392.88;5013235;28;20037;-71
2023/01/28 01:31:14;;;;;;;0.50;0.40;;;;;;;3.95;100.00;99407.13;5013532;28;20030;-71
2023/01/28 01:33:41;;;;;;;0.88;0.45;;;;;;;3.53;100.00;99327.13;5013316;28;20034;-70
2023/01/28 01:36:07;;;;;;;0.68;0.43;;;;;;;3.99;100.00;99403.72;5013351;28;20038;-73
2023/01/28 01:38:35;;;;;;;1.10;0.50;;;;;;;3.97;100.00;99407.09;5012148;28;20041;-71
2023/01/28 01:41:02;;;;;;;1.35;0.40;;;;;;;3.69;100.00;99350.41;5011934;28;20099;-71
2023/01/28 01:43:49;;;;;;;1.13;0.60;;;;;;;4.08;100.00;99427.94;5013136;28;20068;-71
2023/01/28 01:46:21;;;;;;;1.77;0.60;;;;;;;3.00;100.00;99274.09;5012896;28;20037;-73
2023/01/28 01:48:47;;;;;;;1.30;0.75;;;;;;;3.42;100.00;99339.00;5013356;28;20091;-73
2023/01/28 01:51:18;;;;;;;0.50;0.50;;;;;;;4.11;100.00;99443.81;5013048;28;20030;-71
2023/01/28 01:53:47;;;;;;;0.60;0.50;;;;;;;4.01;100.00;99442.25;5013100;28;20030;-73
2023/01/28 01:56:17;;;;;;;0.68;0.47;;;;;;;3.57;100.00;99345.53;5011743;28;20038;-72
2023/01/28 01:58:47;;;;;;;0.50;0.50;;;;;;;4.20;100.00;99445.38;5011343;28;20060;-71
2023/01/28 02:01:12;;;;;;;0.70;0.50;;;;;;;3.09;100.00;99289.91;5011509;28;20026;-71
2023/01/28 02:03:56;;;;;;;0.50;0.38;;;;;;;3.98;100.00;99449.81;5011196;28;20554;-73
2023/01/28 02:06:22;;;;;;;0.68;0.50;;;;;;;3.78;100.00;99405.63;5012779;28;20473;-74
2023/01/28 02:08:47;;;;;;;0.60;0.40;;;;;;;4.04;100.00;99466.53;5013049;28;20029;-72
2023/01/28 02:11:14;;;;;;;0.40;0.32;;;;;;;3.58;100.00;99379.88;5012131;28;20122;-71
2023/01/28 02:13:51;;;;;;;0.70;0.43;;;;;;;3.48;100.00;99364.06;5011335;28;20107;-71
2023/01/28 02:16:17;;;;;;;0.63;0.40;;;;;;;4.07;100.00;99446.38;5011940;28;20500;-72
2023/01/28 02:18:43;;;;;;;0.70;0.47;;;;;;;4.09;100.00;99450.53;5012728;28;20463;-72
2023/01/28 02:21:29;;;;;;;0.63;0.60;;;;;;;4.07;100.00;99467.34;5012493;28;20029;-71
2023/01/28 02:24:37;;;;;;;0.90;0.40;;;;;;;4.07;100.00;99446.38;5012125;28;20065;-70
2023/01/28 02:27:26;;;;;;;0.40;0.40;;;;;;;4.21;100.00;99467.19;4979781;28;20033;-71
2023/01/28 02:29:55;;;;;;;0.68;0.40;;;;;;;4.06;100.00;99469.88;5011891;28;20061;-73
2023/01/28 02:32:56;;;;;;;1.23;0.70;;;;;;;4.19;100.00;99462.19;5011603;28;20046;-71
2023/01/28 02:35:31;;;;;;;0.88;0.50;;;;;;;4.06;100.00;99472.38;5010915;28;20030;-71
2023/01/28 02:38:08;;;;;;;1.10;0.70;;;;;;;3.60;100.00;99380.69;5011813;28;20165;-74
2023/01/28 02:43:43;;;;;;;1.10;0.70;;;;;;;4.07;100.00;99466.50;5012351;28;20036;-71
2023/01/28 02:49:35;;;;;;;1.80;0.77;;;;;;;4.09;100.00;99469.81;5012177;28;20049;-73
2023/01/28 02:53:39;;;;;;;1.00;0.60;;;;;;;3.97;100.00;99470.78;5012145;28;20068;-73
2023/01/28 02:55:34;;;;;;;0.80;0.60;;;;;;;4.11;100.00;99468.97;5011037;28;20128;-74
2023/01/28 02:57:59;;;;;;;1.00;0.80;;;;;;;4.20;100.00;99478.91;5012032;28;20041;-74
2023/01/28 03:00:34;;;;;;;1.67;0.80;;;;;;;3.79;100.00;99417.34;5010781;28;20415;-73
2023/01/28 03:03:33;;;;;;;1.42;0.80;;;;;;;4.03;100.00;99465.69;5011845;28;20034;-73
2023/01/28 03:06:05;;;;;;;0.85;0.47;;;;;;;3.96;100.00;99468.28;5004385;28;20041;-73
2023/01/28 03:36:54;;;;;;;2.90;1.20;;;;;;;3.85;100.00;99468.38;5011728;28;20060;-73
2023/01/28 03:39:26;;;;;;;1.00;0.80;;;;;;;2.80;100.00;99337.00;5011456;28;20422;-73
2023/01/28 03:42:05;;;;;;;1.08;0.77;;;;;;;3.35;100.00;99411.03;5009914;28;20041;-72
2023/01/28 03:47:16;;;;;;;1.10;0.82;;;;;;;3.30;100.00;99410.25;5011166;28;20831;-73
2023/01/28 03:49:49;;;;;;;1.73;1.20;;;;;;;3.90;100.00;99511.91;5010962;28;20034;-72
2023/01/28 03:52:20;;;;;;;2.08;0.90;;;;;;;3.94;100.00;99507.69;5011199;28;20034;-71
2023/01/28 03:54:49;;;;;;;1.60;0.80;;;;;;;3.48;100.00;99429.38;5010751;28;20030;-73
2023/01/28 03:57:15;;;;;;;1.10;0.77;;;;;;;2.89;100.00;99357.03;5011162;28;20655;-72
2023/01/28 03:59:41;;;;;;;1.10;0.75;;;;;;;3.85;100.00;99525.34;5026150;28;20068;-74
2023/01/28 04:02:07;;;;;;;1.75;1.00;;;;;;;3.64;100.00;99437.59;5010952;28;20058;-72
2023/01/28 04:04:33;;;;;;;3.00;1.50;;;;;;;3.91;100.00;99505.19;5010790;28;20033;-73
2023/01/28 04:06:59;;;;;;;2.33;1.30;;;;;;;3.53;100.00;99458.63;5011338;28;20026;-72
2023/01/28 04:09:25;;;;;;;2.95;1.33;;;;;;;3.54;100.00;99455.25;5011519;28;20034;-73
2023/01/28 04:11:50;;;;;;;1.70;1.10;;;;;;;3.54;100.00;99464.47;5010048;28;20037;-73
2023/01/28 04:14:17;;;;;;;1.35;0.80;;;;;;;3.71;100.00;99507.88;5010568;28;20029;-72
2023/01/28 04:16:42;;;;;;;0.80;0.60;;;;;;;3.33;100.00;99465.47;5010459;28;20404;-72
2023/01/28 04:19:09;;;;;;;0.82;0.63;;;;;;;3.44;100.00;99495.53;4991150;28;20057;-75
2023/01/28 04:21:35;;;;;;;1.13;0.70;;;;;;;3.37;100.00;99471.31;4991609;28;20056;-73
2023/01/28 04:24:00;;;;;;;1.45;0.80;;;;;;;3.06;100.00;99433.03;4994809;28;20500;-71
2023/01/28 04:26:26;;;;;;;1.00;0.85;;;;;;;3.97;100.00;99546.22;5010685;28;20026;-70
2023/01/28 04:28:52;;;;;;;1.27;0.88;;;;;;;3.71;100.00;99550.59;5010744;28;20030;-74
2023/01/28 04:31:17;;;;;;;2.50;1.05;;;;;;;3.65;100.00;99532.22;5009412;28;20026;-70
2023/01/28 04:33:43;;;;;;;2.30;1.40;;;;;;;3.23;100.00;99438.75;5007922;28;20034;-74
2023/01/28 04:36:08;;;;;;;2.05;1.20;;;;;;;3.97;100.00;99537.81;5010378;28;20022;-69
2023/01/28 04:38:34;;;;;;;1.50;0.98;;;;;;;3.31;100.00;99464.66;5008913;28;20037;-69
2023/01/28 04:40:59;;;;;;;1.55;1.10;;;;;;;3.76;100.00;99540.53;5009954;28;20057;-71
2023/01/28 04:43:24;;;;;;;0.80;0.75;;;;;;;3.01;100.00;99447.28;5008796;28;21374;-70
2023/01/28 04:45:50;;;;;;;1.02;0.73;;;;;;;2.78;100.00;99393.91;5009467;28;20030;-69
2023/01/28 04:48:16;;;;;;;0.70;0.60;;;;;;;3.87;100.00;99548.81;5009899;28;20033;-69
2023/01/28 04:50:42;;;;;;;0.82;0.63;;;;;;;3.70;100.00;99548.09;5009612;28;20816;-71
2023/01/28 04:53:08;;;;;;;1.48;0.60;;;;;;;3.64;100.00;99560.72;5010378;28;20030;-71
2023/01/28 04:55:33;;;;;;;1.50;0.70;;;;;;;3.57;100.00;99549.88;5011889;28;20488;-71
2023/01/28 04:57:58;;;;;;;1.20;1.08;;;;;;;3.85;100.00;99558.88;5013377;28;20034;-70
2023/01/28 05:00:24;;;;;;;2.13;1.50;;;;;;;3.37;100.00;99494.75;5013674;28;20026;-69
2023/01/28 05:02:49;;;;;;;2.05;1.35;;;;;;;3.16;100.00;99494.91;5012907;28;20064;-70
2023/01/28 05:05:15;;;;;;;1.92;0.98;;;;;;;3.46;100.00;99554.97;5013120;28;20034;-72
2023/01/28 05:07:41;;;;;;;1.25;0.80;;;;;;;3.13;100.00;99506.66;5013104;28;20037;-69
2023/01/28 05:10:07;;;;;;;1.30;0.90;;;;;;;3.69;100.00;99584.13;5011885;28;20506;-70
2023/01/28 05:12:33;;;;;;;1.15;0.80;;;;;;;3.62;100.00;99593.41;5007862;28;20035;-69
2023/01/28 05:15:02;;;;;;;0.70;0.70;;;;;;;3.00;100.00;99497.50;4991872;28;20065;-69
2023/01/28 05:17:28;;;;;;;1.15;0.80;;;;;;;3.57;100.00;99609.31;4993393;28;20397;-72
2023/01/28 05:19:53;;;;;;;1.00;0.70;;;;;;;3.26;100.00;99578.53;4993533;28;20097;-70
2023/01/28 05:22:19;;;;;;;1.20;0.90;;;;;;;2.98;100.00;99526.78;5008520;28;20026;-74
2023/01/28 05:24:44;;;;;;;2.88;1.67;;;;;;;3.73;100.00;99603.38;4993558;28;20031;-70
2023/01/28 05:27:10;;;;;;;3.55;1.50;;;;;;;3.46;100.00;99592.66;4993264;28;20413;-71
2023/01/28 05:29:35;;;;;;;2.78;1.40;;;;;;;3.36;100.00;99596.06;4992418;28;20034;-71
2023/01/28 05:32:01;;;;;;;1.90;1.02;;;;;;;2.95;100.00;99516.78;4993343;28;20026;-71
2023/01/28 05:34:26;;;;;;;1.77;1.10;;;;;;;3.27;100.00;99565.13;4993307;28;20117;-71
2023/01/28 05:36:52;;;;;;;1.30;1.00;;;;;;;3.55;100.00;99604.31;4993532;28;20042;-72
2023/01/28 05:39:17;;;;;;;2.80;1.08;;;;;;;3.53;100.00;99614.38;4995447;28;20131;-71
2023/01/28 05:41:42;;;;;;;2.55;1.35;;;;;;;3.66;100.00;99610.13;5009360;28;20038;-70
2023/01/28 05:44:08;;;;;;;3.28;1.80;;;;;;;3.56;100.00;99553.25;5012939;28;20385;-70
2023/01/28 05:46:33;;;;;;;3.53;2.00;;;;;;;3.66;100.00;99599.22;5013125;28;20030;-69
2023/01/28 05:48:59;;;;;;;2.65;1.80;;;;;;;3.69;100.00;99615.13;5010821;28;20101;-71
2023/01/28 05:51:24;;;;;;;2.63;1.67;;;;;;;3.67;100.00;99615.97;5012045;28;20503;-71
2023/01/28 05:53:50;;;;;;;5.60;2.10;;;;;;;3.75;100.00;99614.25;5012519;28;20038;-72
2023/01/28 05:56:15;;;;;;;3.25;2.10;;;;;;;3.42;100.00;99596.03;5012131;28;20033;-72
2023/01/28 05:58:40;;;;;;;2.50;1.40;;;;;;;3.58;100.00;99626.09;5011450;28;20065;-72
2023/01/28 06:01:06;;;;;;;5.80;3.00;;;;;;;3.69;100.00;99620.16;5011489;28;20037;-71
2023/01/28 06:03:31;;;;;;;7.88;4.63;;;;;;;3.49;100.00;99607.72;5011199;28;20030;-71
2023/01/28 06:05:56;;;;;;;5.00;3.40;;;;;;;3.47;100.00;99623.63;5010143;28;20033;-72
2023/01/28 06:08:22;;;;;;;3.58;2.28;;;;;;;3.52;100.00;99621.94;5012015;28;20030;-71
2023/01/28 06:10:47;;;;;;;5.05;2.83;;;;;;;2.97;100.00;99523.44;5011731;28;20061;-71
2023/01/28 06:13:13;;;;;;;7.75;3.67;;;;;;;3.09;100.00;99568.56;5012025;28;20022;-71
2023/01/28 06:15:38;;;;;;;5.00;2.80;;;;;;;2.60;100.00;99480.13;5010702;28;20191;-71
2023/01/28 06:18:03;;;;;;;24.63;14.20;;;;;;;3.00;100.00;99551.06;5011742;28;20030;-70
2023/01/28 06:20:29;;;;;;;4.07;2.72;;;;;;;3.49;100.00;99657.09;5012410;28;20022;-71
2023/01/28 06:22:54;;;;;;;20.75;13.25;;;;;;;3.02;100.00;99569.44;5012327;28;20036;-71
2023/01/28 06:25:20;;;;;;;6.85;3.92;;;;;;;3.47;100.00;99639.53;5010836;28;20030;-71
2023/01/28 06:27:45;;;;;;;3.42;2.60;;;;;;;3.38;100.00;99663.88;5010587;28;20510;-71
2023/01/28 06:30:11;;;;;;;3.75;2.50;;;;;;;2.93;100.00;99561.13;5011672;28;20039;-71
2023/01/28 06:32:36;;;;;;;4.63;2.80;;;;;;;3.53;100.00;99679.72;5012240;28;20037;-73
2023/01/28 06:35:02;;;;;;;2.70;1.95;;;;;;;3.63;100.00;99679.66;5012269;28;20419;-71
2023/01/28 06:37:28;;;;;;;2.70;1.88;;;;;;;3.54;100.00;99658.75;5012050;28;20038;-71
2023/01/28 06:39:53;;;;;;;2.13;1.90;;;;;;;3.34;100.00;99622.88;5011768;28;20046;-70
2023/01/28 06:42:19;;;;;;;4.90;2.45;;;;;;;3.49;100.00;99680.56;5012433;28;20492;-71
2023/01/28 06:44:44;;;;;;;6.95;3.30;;;;;;;3.27;100.00;99601.13;5012556;28;20034;-71
2023/01/28 06:47:09;;;;;;;4.40;2.63;;;;;;;3.49;100.00;99673.03;5010578;28;20040;-71
2023/01/28 06:49:36;;;;;;;4.90;2.40;;;;;;;3.19;100.00;99617.09;5012352;28;20042;-71
2023/01/28 06:52:03;;;;;;;3.90;2.55;;;;;;;3.62;100.00;99703.13;5011745;28;20030;-70
2023/01/28 06:54:28;;;;;;;3.25;2.40;;;;;;;3.10;100.00;99607.91;5011286;28;20084;-70
2023/01/28 06:56:54;;;;;;;5.40;3.15;;;;;;;2.99;100.00;99546.84;5011667;28;20112;-70
2023/01/28 06:59:19;;;;;;;9.02;5.65;;;;;;;3.83;100.00;99720.59;5011066;28;20042;-70
2023/01/28 07:01:45;;;;;;;8.77;5.13;;;;;;;3.57;100.00;99705.66;5010015;28;20026;-70
2023/01/28 07:04:10;;;;;;;3.58;2.78;;;;;;;3.47;100.00;99704.84;5009914;28;20030;-72
2023/01/28 07:06:35;;;;;;;5.10;3.55;;;;;;;3.42;100.00;99658.84;5011267;28;20037;-72
2023/01/28 07:09:01;;;;;;;4.95;3.10;;;;;;;3.89;100.00;99728.94;5011155;28;20436;-71
2023/01/28 07:11:26;;;;;;;3.65;2.60;;;;;;;3.84;100.00;99727.31;5010059;28;20040;-71
2023/01/28 07:13:52;;;;;;;5.22;3.55;;;;;;;3.98;100.00;99728.88;5011183;28;20447;-70
2023/01/28 07:16:17;;;;;;;5.30;3.30;;;;;;;3.18;100.00;99572.72;5011298;28;20034;-70
2023/01/28 07:18:43;;;;;;;3.53;2.40;;;;;;;3.48;100.00;99636.19;5011058;28;20071;-70
2023/01/28 07:21:08;;;;;;;6.00;2.80;;;;;;;3.49;100.00;99645.38;5010213;28;20025;-70
2023/01/28 07:23:34;;;;;;;4.63;3.08;;;;;;;3.16;100.00;99582.78;5009903;28;20030;-71
2023/01/28 07:26:03;;;;;;;4.20;2.38;;;;;;;4.00;100.00;99726.38;5011192;28;20469;-71
2023/01/28 07:28:29;;;;;;;4.03;2.70;;;;;;;3.73;100.00;99661.16;5009684;28;20088;-71
2023/01/28 07:30:55;;;;;;;4.20;2.97;;;;;;;4.31;100.00;99748.81;5011096;28;20026;-71
2023/01/28 07:33:20;;;;;;;6.57;4.00;;;;;;;3.91;100.00;99649.34;5011356;28;20054;-71
2023/01/28 07:35:47;;;;;;;5.25;3.08;;;;;;;3.86;100.00;99678.72;5009612;28;20042;-71
2023/01/28 07:38:13;;;;;;;5.70;2.45;;;;;;;4.22;100.00;99745.50;5008938;28;20690;-71
2023/01/28 07:40:39;;;;;;;4.53;2.58;;;;;;;3.74;100.00;99657.81;5010012;28;20121;-71
2023/01/28 07:43:06;;;;;;;4.68;2.88;;;;;;;4.38;100.00;99769.72;5010581;28;20113;-71
2023/01/28 07:45:31;;;;;;;4.63;2.25;;;;;;;4.42;100.00;99748.72;5011101;28;20087;-71
2023/01/28 07:47:59;;;;;;;8.77;5.75;;;;;;;4.02;100.00;99672.72;5010703;28;20030;-71
2023/01/28 07:50:25;;;;;;;8.75;4.90;;;;;;;4.61;100.00;99759.50;5009887;28;20451;-71
2023/01/28 07:52:51;;;;;;;7.95;4.30;;;;;;;4.50;100.00;99763.78;5009879;28;20025;-72
2023/01/28 07:55:17;;;;;;;5.15;2.85;;;;;;;4.54;100.00;99775.47;5009816;28;20056;-72
2023/01/28 07:57:49;;;;;;;4.78;2.65;;;;;;;4.40;100.00;99770.56;5011262;28;20033;-70
2023/01/28 08:00:15;;;;;;;5.70;3.38;;;;;;;4.11;100.00;99696.97;5009723;28;20038;-71
2023/01/28 08:02:43;;;;;;;5.55;3.42;;;;;;;4.36;100.00;99766.38;5010956;28;20033;-71
2023/01/28 08:05:09;;;;;;;6.22;2.97;;;;;;;3.95;100.00;99693.72;5011044;28;20026;-73
2023/01/28 08:07:34;;;;;;;4.50;3.13;;;;;;;4.10;100.00;99707.88;5010843;28;20424;-71
2023/01/28 08:10:00;;;;;;;3.67;2.28;;;;;;;4.68;100.00;99794.69;5009035;28;20034;-72
2023/01/28 08:12:25;;;;;;;5.03;2.67;;;;;;;4.39;100.00;99738.69;5010241;28;20038;-74
2023/01/28 08:14:51;;;;;;;4.05;2.90;;;;;;;4.10;100.00;99698.63;5010274;28;20037;-71
2023/01/28 08:17:16;;;;;;;5.72;3.17;;;;;;;4.07;100.00;99698.69;5010835;28;20030;-71
2023/01/28 08:19:41;;;;;;;8.55;5.35;;;;;;;3.70;100.00;99626.00;5010409;28;20508;-75
2023/01/28 08:22:07;;;;;;;16.42;8.23;;;;;;;3.98;100.00;99713.00;5008843;28;20041;-71
2023/01/28 08:24:32;;;;;;;4.80;3.25;;;;;;;4.73;100.00;99785.44;5009463;28;20029;-71
2023/01/28 08:26:57;;;;;;;5.38;3.10;;;;;;;3.98;100.00;99696.19;5010464;28;20029;-71
2023/01/28 08:29:23;;;;;;;7.05;3.92;;;;;;;4.66;100.00;99783.78;5011193;28;20034;-71
2023/01/28 08:31:48;;;;;;;3.95;2.85;;;;;;;4.63;100.00;99811.53;5014069;28;20480;-71
2023/01/28 08:34:14;;;;;;;5.55;3.53;;;;;;;4.11;100.00;99730.50;5013596;28;20030;-71
2023/01/28 08:36:39;;;;;;;4.45;3.05;;;;;;;4.08;100.00;99729.69;5014208;28;20037;-72
2023/01/28 08:39:04;;;;;;;5.03;3.50;;;;;;;4.66;100.00;99805.59;5014229;28;20220;-71
2023/01/28 08:41:30;;;;;;;6.90;4.90;;;;;;;4.80;100.00;99808.84;5014022;28;20419;-71
2023/01/28 08:43:55;;;;;;;6.10;3.85;;;;;;;4.08;100.00;99651.75;5012009;28;20091;-71
2023/01/28 08:46:21;;;;;;;5.93;4.00;;;;;;;4.95;100.00;99821.34;5013540;28;20030;-70
2023/01/28 08:48:49;;;;;;;5.38;3.10;;;;;;;4.39;100.00;99741.22;5011621;28;20037;-71
2023/01/28 08:51:15;;;;;;;6.70;3.53;;;;;;;4.14;100.00;99748.06;5012523;28;20033;-71
2023/01/28 08:53:40;;;;;;;4.07;3.00;;;;;;;4.26;100.00;99737.94;5013632;28;20187;-72
2023/01/28 08:56:06;;;;;;;4.43;2.90;;;;;;;4.86;100.00;99814.69;5013690;28;20416;-71
2023/01/28 08:58:31;;;;;;;4.03;3.20;;;;;;;4.89;100.00;99799.53;5011966;28;20057;-71
2023/01/28 09:00:56;;;;;;;6.65;3.85;;;;;;;4.16;100.00;99718.72;5012316;28;20739;-71
2023/01/28 09:03:22;;;;;;;3.17;2.05;;;;;;;4.26;100.00;99720.34;5013882;28;20512;-71
2023/01/28 09:05:49;;;;;;;2.65;2.00;;;;;;;4.74;100.00;99802.19;5013374;28;20038;-71
2023/01/28 09:08:14;;;;;;;3.28;2.42;;;;;;;4.01;100.00;99670.22;5012705;28;20037;-71
2023/01/28 09:10:41;;;;;;;3.70;2.15;;;;;;;4.82;100.00;99812.19;5012507;28;20034;-71
2023/01/28 09:13:14;;;;;;;6.78;5.18;;;;;;;3.96;100.00;99656.84;5014087;28;20026;-70
2023/01/28 09:15:41;;;;;;;5.95;3.38;;;;;;;4.48;100.00;99737.81;5012330;28;20026;-71
2023/01/28 09:18:06;;;;;;;3.00;2.22;;;;;;;4.92;100.00;99807.09;5011911;28;20120;-71
2023/01/28 09:20:32;;;;;;;3.25;2.50;;;;;;;4.91;100.00;99800.38;5011856;28;20034;-72
2023/01/28 09:22:59;;;;;;;5.45;4.07;;;;;;;5.18;100.00;99816.94;5013482;28;20026;-71
2023/01/28 09:25:24;;;;;;;2.67;2.35;;;;;;;4.70;100.00;99802.22;5012983;28;20037;-71
2023/01/28 09:27:50;;;;;;;3.97;3.53;;;;;;;5.27;100.00;99814.31;5013195;28;20030;-71
2023/01/28 09:30:15;;;;;;;5.50;3.90;;;;;;;4.21;100.00;99706.97;5012216;28;20026;-71
2023/01/28 09:32:41;;;;;;;3.90;2.95;;;;;;;4.32;100.00;99716.94;5013730;28;20084;-71
2023/01/28 09:35:07;;;;;;;4.10;3.20;;;;;;;4.82;100.00;99784.50;5011751;28;20057;-71
2023/01/28 09:37:32;;;;;;;5.88;4.13;;;;;;;4.98;100.00;99816.28;5012774;28;20496;-71
2023/01/28 09:39:58;;;;;;;5.57;4.10;;;;;;;5.02;100.00;99801.13;5012922;28;20044;-70
2023/01/28 09:42:33;;;;;;;5.30;3.90;;;;;;;4.92;100.00;99811.28;5012581;28;20493;-71
2023/01/28 09:45:17;;;;;;;5.50;3.88;;;;;;;4.82;100.00;99838.22;5013121;28;20045;-71
2023/01/28 09:47:49;;;;;;;8.27;5.20;;;;;;;5.26;100.00;99825.25;5011334;28;20485;-69
2023/01/28 09:50:22;;;;;;;7.82;4.80;;;;;;;4.99;100.00;99813.72;5012619;28;20045;-73
2023/01/28 09:52:49;;;;;;;7.55;4.95;;;;;;;4.80;100.00;99821.44;5013170;28;20034;-73
2023/01/28 09:55:33;;;;;;;3.92;2.90;;;;;;;4.26;100.00;99671.69;5011524;28;20030;-71
2023/01/28 09:57:59;;;;;;;4.30;3.00;;;;;;;4.65;100.00;99720.88;5012862;28;20424;-73
2023/01/28 10:00:53;;;;;;;13.15;8.32;;;;;;;5.12;100.00;99817.84;5012899;28;20069;-73
2023/01/28 10:03:31;;;;;;;7.25;4.63;;;;;;;5.27;100.00;99835.31;4990032;28;20068;-73
2023/01/28 10:06:21;;;;;;;12.43;7.82;;;;;;;4.85;100.00;99719.03;5012761;28;20123;-71
2023/01/28 10:09:14;;;;;;;12.15;7.65;;;;;;;5.72;100.00;99816.41;5012378;28;20025;-72
2023/01/28 10:12:02;;;;;;;7.97;6.57;;;;;;;5.55;100.00;99807.31;4990860;28;20069;-71
2023/01/28 10:14:54;;;;;;;9.35;4.72;;;;;;;5.31;100.00;99742.88;4992775;28;20030;-72
2023/01/28 10:17:35;;;;;;;9.25;4.38;;;;;;;4.60;100.00;99715.03;5000639;28;20042;-72
2023/01/28 10:20:29;;;;;;;13.38;3.88;;;;;;;6.40;100.00;99802.13;5008641;28;20136;-70
2023/01/28 10:23:13;;;;;;;9.43;4.97;;;;;;;5.51;100.00;99796.44;5007953;28;20054;-70
2023/01/28 10:25:43;;;;;;;7.00;4.05;;;;;;;5.92;100.00;99717.81;5011119;28;20057;-71
2023/01/28 10:28:35;;;;;;;6.68;4.60;;;;;;;5.33;100.00;99801.66;5011169;28;20068;-73
2023/01/28 10:31:01;;;;;;;4.72;3.50;;;;;;;5.25;100.00;99819.38;4990806;28;20129;-71
2023/01/28 10:33:26;;;;;;;3.10;2.40;;;;;;;5.25;100.00;99828.63;4992480;28;20138;-72
2023/01/28 10:35:54;;;;;;;2.90;2.40;;;;;;;4.51;100.00;99722.66;4992891;28;20037;-74
2023/01/28 10:38:22;;;;;;;5.43;3.10;;;;;;;4.56;100.00;99724.28;5007868;28;20053;-72
2023/01/28 10:40:49;;;;;;;3.97;2.55;;;;;;;4.28;100.00;99667.50;4991261;28;20069;-72
2023/01/28 10:43:28;;;;;;;3.65;2.47;;;;;;;5.02;100.00;99831.34;4992565;28;20041;-72
2023/01/28 10:46:23;;;;;;;6.90;3.60;;;;;;;6.74;100.00;99805.78;4992611;28;20026;-70
2023/01/28 10:49:11;;;;;;;5.18;3.10;;;;;;;4.86;100.00;99768.53;4990394;28;20413;-70
2023/01/28 10:51:39;;;;;;;4.53;3.15;;;;;;;5.12;100.00;99738.91;5007739;28;20045;-70
2023/01/28 10:54:22;;;;;;;3.42;2.63;;;;;;;4.81;100.00;99715.72;4999416;28;20476;-71
2023/01/28 10:57:00;;;;;;;5.00;3.10;;;;;;;5.29;100.00;99830.25;5007074;28;20031;-71
2023/01/28 10:59:33;;;;;;;2.38;1.98;;;;;;;5.54;100.00;99790.53;4990640;28;20129;-70
2023/01/28 11:02:18;;;;;;;5.07;3.25;;;;;;;5.49;100.00;99818.31;4992035;28;20026;-70
2023/01/28 11:04:43;;;;;;;5.95;3.58;;;;;;;5.14;100.00;99735.53;4991786;28;20137;-71
2023/01/28 11:07:20;;;;;;;5.03;2.85;;;;;;;5.28;100.00;99763.94;4992577;28;20057;-71
2023/01/28 11:09:50;;;;;;;2.85;2.30;;;;;;;5.48;100.00;99838.50;5006342;28;20034;-71
2023/01/28 11:12:19;;;;;;;2.47;2.20;;;;;;;5.75;100.00;99831.47;5006722;28;20077;-71
2023/01/28 11:15:00;;;;;;;5.05;2.90;;;;;;;5.73;100.00;99827.28;5011227;28;20040;-71
2023/01/28 11:17:31;;;;;;;4.50;2.47;;;;;;;6.12;100.00;99837.78;5008607;28;20037;-70
2023/01/28 11:20:00;;;;;;;4.57;3.20;;;;;;;5.70;100.00;99744.13;5007722;28;20077;-70
2023/01/28 11:22:42;;;;;;;7.57;3.97;;;;;;;5.90;100.00;99807.81;5002628;28;20060;-71
2023/01/28 11:25:15;;;;;;;;;;;;;;;6.91;100.00;99827.41;4992068;28;20084;-71
2023/01/28 11:27:47;;;;;;;4.18;2.55;;;;;;;6.08;100.00;99807.59;4989940;28;20447;-71
2023/01/28 11:30:33;;;;;;;5.35;3.55;;;;;;;6.39;100.00;99825.66;4990039;28;20113;-70
2023/01/28 11:32:59;;;;;;;51.03;36.97;;;;;;;6.34;100.00;99828.25;4989515;28;20061;-71
2023/01/28 11:35:29;;;;;;;8.45;5.50;;;;;;;6.07;100.00;99803.38;4989946;28;20485;-70
2023/01/28 11:37:57;;;;;;;5.00;3.67;;;;;;;6.27;100.00;99844.34;4991302;28;20026;-70
2023/01/28 11:40:23;;;;;;;17.85;10.93;;;;;;;5.75;100.00;99742.38;4990549;28;20037;-72
2023/01/28 11:42:56;;;;;;;3.85;3.25;;;;;;;6.03;100.00;99834.56;4991080;28;20053;-71
2023/01/28 11:45:29;;;;;;;6.45;3.88;;;;;;;5.52;100.00;99742.66;4990121;28;20034;-70
2023/01/28 11:48:12;;;;;;;8.30;5.07;;;;;;;5.72;100.00;99747.47;4991001;28;20116;-70
2023/01/28 11:50:48;;;;;;;10.85;7.43;;;;;;;5.26;100.00;99674.09;4990599;28;20128;-70
2023/01/28 11:53:31;;;;;;;10.75;7.22;;;;;;;6.02;100.00;99817.75;4990720;28;20139;-70
2023/01/28 11:56:32;;;;;;;2.92;2.28;;;;;;;5.80;100.00;99783.53;4991267;28;20026;-70
2023/01/28 11:59:12;;;;;;;2.70;1.90;;;;;;;5.77;100.00;99779.34;4972737;28;20046;-70
2023/01/28 12:01:47;;;;;;;5.55;2.83;;;;;;;6.08;100.00;99848.78;4989638;28;20600;-70
2023/01/28 12:04:22;;;;;;;4.10;2.95;;;;;;;5.29;100.00;99730.31;4991319;28;20517;-70
2023/01/28 12:07:26;;;;;;;7.05;3.90;;;;;;;5.69;100.00;99835.75;4995059;28;20030;-70
2023/01/28 12:10:01;;;;;;;2.67;2.10;;;;;;;5.97;100.00;99847.22;4994891;28;20519;-69
2023/01/28 12:13:05;;;;;;;3.63;2.55;;;;;;;5.85;100.00;99853.25;4994834;28;20428;-69
2023/01/28 12:15:50;;;;;;;3.55;2.60;;;;;;;5.81;100.00;99854.13;4984006;28;20034;-69
2023/01/28 12:18:37;;;;;;;3.03;2.20;;;;;;;5.42;100.00;99767.97;4993523;28;20124;-70
2023/01/28 12:21:15;;;;;;;3.35;2.58;;;;;;;5.52;100.00;99767.88;4994600;28;20113;-69
2023/01/28 12:23:56;;;;;;;3.55;2.58;;;;;;;6.02;100.00;99866.50;4994722;28;20030;-70